AirNav   Pilot Hours Calculator
 
 996 users online  

7LL3 Jasper County Flying Club Airport
Newton, Illinois, USA

GOING TO NEWTON?


FAA INFORMATION EFFECTIVE 01 DECEMBER 2022

Location

FAA Identifier: 7LL3
Lat/Long: 38-55-54.1590N 088-09-25.1400W
38-55.902650N 088-09.419000W
38.9317108,-88.1569833
(estimated)
Elevation: 575 ft. / 175 m (estimated)
Variation: 00E (1985)
From city: 3 miles S of NEWTON, IL
Time zone: UTC -6 (UTC -5 during Daylight Saving Time)
Zip code: 62448

Airport Operations

Airport use: Private use. Permission required prior to landing
Activation date: 11/1954
Control tower: no
ARTCC: KANSAS CITY CENTER
FSS: COLUMBIA FLIGHT SERVICE STATION
Attendance: UNATNDD
Wind indicator: yes
Segmented circle: no

Airport Communications

WX AWOS-3 at OLY (13 nm S): 119.275 (618-393-4416)
WX AWOS-3 at 1H2 (19 nm NW): 118.375 (217-536-5976)

Nearby radio navigation aids

VOR radial/distance  VOR name  Freq  Var
BIBr084/15.2BIBLE GROVE VORTAC109.0003E

 
NDB name  Hdg/Dist  Freq  Var  ID
OLNEY006/12.827203WOLY --- .-.. -.--
PALESTINE261/24.539103WPLX .--. .-.. -..-
WAYNE COUNTY021/35.125701WFWC ..-. .-- -.-.

Airport Services

Parking: tiedowns
Airframe service: NONE
Powerplant service: NONE

Runway Information

Runway 18/36

Dimensions: 3365 x 100 ft. / 1026 x 30 m
Surface: turf
RUNWAY 18  RUNWAY 36
Traffic pattern: leftleft

Airport Ownership and Management from official FAA records

Ownership: Privately-owned
Owner: JASPER COUNTY FLYING CLUB
PO BOX 24
NEWTON, IL 62448
Phone (618) 783-8188
Manager: BRUCE W. HILL
8385 N 1150TH ST.
NEWTON, IL 62448
Phone 618-783-8188
CELL: 618-562-8189

Airport Operational Statistics

Aircraft based on the field: 4
Single engine airplanes: 3
Ultralights: 1
    
Aircraft operations: avg 33/month *
50% transient general aviation
50% local general aviation
* for 12-month period ending 10 November 1980

Additional Remarks

FOR CD CTC KANSAS CITY ARTCC AT 913-254-8508.

Instrument Procedures

There are no published instrument procedures at 7LL3.

Some nearby airports with instrument procedures:

KOLY - Olney-Noble Airport (13 nm S)
1H2 - Effingham County Memorial Airport (19 nm NW)
KFOA - Flora Municipal Airport (21 nm SW)
1H8 - Casey Municipal Airport (23 nm N)
KRSV - Crawford County Airport (24 nm E)
 
Loc | Ops | Rwys | IFR | FBO | Links
Com | Nav | Svcs | Stats | Notes
Area around 7LL3 (Jasper County Flying Club Airport)
 
Road maps at: MapQuest Bing Google
 
Aerial photo
No photo
 
Sectional chart

 
Airport distance calculator
Flying to Jasper County Flying Club Airport? Find the distance to fly.

From to 7LL3

Sunrise and sunset
Times for 07-Dec-2022
 Local
(UTC-6)
 Zulu
(UTC)
Morning civil twilight06:2912:29
Sunrise06:5912:59
Sunset16:2922:29
Evening civil twilight16:5922:59

Current date and time
Zulu (UTC)  07-Dec-2022 12:37:41
Local (UTC-6)  07-Dec-2022 06:37:41
 
METAR
K1H2 
19nm NW 
071215Z AUTO 00000KT 3SM BR SCT007 SCT037 05/04 A3018 RMK AO2 T00520044
KFOA 
21nm SW 
071215Z AUTO 00000KT 1 3/4SM BR BKN003 BKN006 07/07 A3017 RMK AO2
KRSV 
24nm E 
071215Z AUTO 00000KT 3SM BR SCT019 SCT026 OVC033 05/05 A3017 RMK AO2 T00500049
TAF
KHUF 
49nm NE 
071120Z 0712/0812 01004KT 5SM BR FEW010 BKN025 TEMPO 0712/0714 4SM BR BKN011 FM071500 34003KT 6SM BR SCT011 OVC025 FM071800 32005KT P6SM BKN035 FM072300 01004KT 5SM BR SCT010 BKN015 FM080400 04004KT 3SM BR BKN010
KMVN 
50nm SW 
071120Z 0712/0812 00000KT 1 1/2SM BR OVC003 TEMPO 0712/0715 3/4SM BR OVC002 FM071500 34003KT P6SM OVC006 FM071800 34004KT P6SM BKN013 FM072200 34003KT P6SM SCT070 FM080900 05003KT P6SM OVC030
NOTAMs
Click for the latest NOTAMs
NOTAMs are issued by the DoD/FAA and will open in a separate window not controlled by AirNav.

 

 
 

Would you like to see your business listed on this page?

 If your business provides an interesting product or service to pilots, flight crews, aircraft, or users of the Jasper County Flying Club Airport, you should consider listing it here.  To start the listing process, click on the button below
 
Add a business
 

Other Pages about Jasper County Flying Club Airport

Update a link
 
Copyright © AirNav, LLC. All rights reserved. Privacy Policy  Contact